createdAt,value
2018-03-17T00:02:25.777Z,4.40
2018-03-17T00:04:53.270Z,4.30
2018-03-17T00:07:20.741Z,4.20
2018-03-17T00:09:48.237Z,4.20
2018-03-17T00:12:16.474Z,4.20
2018-03-17T00:14:43.949Z,4.20
2018-03-17T00:17:11.445Z,4.20
2018-03-17T00:19:39.694Z,4.10
2018-03-17T00:22:07.169Z,4.10
2018-03-17T00:24:34.666Z,4.10
2018-03-17T00:27:02.194Z,4.10
2018-03-17T00:29:30.437Z,4.00
2018-03-17T00:31:58.033Z,4.00
2018-03-17T00:34:26.312Z,3.90
2018-03-17T00:36:53.806Z,3.90
2018-03-17T00:39:21.302Z,3.80
2018-03-17T00:41:48.877Z,3.80
2018-03-17T00:44:17.121Z,3.90
2018-03-17T00:46:44.609Z,3.90
2018-03-17T00:49:12.860Z,3.90
2018-03-17T00:51:40.342Z,3.90
2018-03-17T00:54:08.629Z,4.00
2018-03-17T00:56:36.869Z,3.90
2018-03-17T00:59:04.352Z,3.90
2018-03-17T01:01:32.619Z,4.00
2018-03-17T01:04:00.098Z,3.90
2018-03-17T01:06:27.581Z,4.00
2018-03-17T01:08:55.074Z,4.10
2018-03-17T01:11:22.549Z,4.20
2018-03-17T01:13:50.798Z,4.20
2018-03-17T01:16:18.705Z,4.20
2018-03-17T01:18:47.178Z,3.80
2018-03-17T01:21:15.416Z,3.50
2018-03-17T01:23:42.908Z,3.50
2018-03-17T01:26:11.148Z,3.80
2018-03-17T01:28:38.622Z,3.70
2018-03-17T01:31:06.119Z,3.80
2018-03-17T01:33:33.590Z,3.90
2018-03-17T01:36:01.081Z,4.00
2018-03-17T01:38:28.577Z,4.10
2018-03-17T01:40:56.821Z,4.20
2018-03-17T01:43:24.293Z,4.20
2018-03-17T01:45:51.865Z,4.30
2018-03-17T01:48:20.104Z,4.50
2018-03-17T01:50:47.577Z,4.50
2018-03-17T01:53:15.410Z,4.50
2018-03-17T01:55:42.882Z,4.60
2018-03-17T01:58:10.625Z,4.60
2018-03-17T02:00:38.126Z,4.70
2018-03-17T02:03:05.597Z,4.70
2018-03-17T02:05:33.841Z,4.50
2018-03-17T02:08:01.337Z,4.50
2018-03-17T02:10:29.577Z,4.70
2018-03-17T02:12:57.101Z,4.70
2018-03-17T02:15:25.323Z,4.90
2018-03-17T02:17:52.794Z,4.90
2018-03-17T02:20:21.046Z,5.10
2018-03-17T02:22:48.541Z,5.10
2018-03-17T02:25:16.044Z,5.20
2018-03-17T02:27:43.552Z,5.30
2018-03-17T02:30:11.819Z,5.40
2018-03-17T02:32:40.066Z,5.50
2018-03-17T02:35:07.553Z,5.40
2018-03-17T02:37:35.814Z,5.60
2018-03-17T02:40:04.799Z,5.50
2018-03-17T02:42:32.282Z,5.50
2018-03-17T02:45:00.550Z,5.40
2018-03-17T02:47:28.786Z,5.40
2018-03-17T02:49:57.789Z,5.40
2018-03-17T02:52:25.290Z,5.40
2018-03-17T02:54:53.534Z,5.30
2018-03-17T02:57:21.014Z,5.30
2018-03-17T02:59:49.274Z,5.20
2018-03-17T03:02:16.845Z,5.20
2018-03-17T03:04:45.109Z,4.90
2018-03-17T03:07:12.698Z,4.90
2018-03-17T03:09:40.173Z,4.70
2018-03-17T03:12:07.755Z,4.70
2018-03-17T03:14:35.505Z,4.60
2018-03-17T03:17:03.034Z,4.60
2018-03-17T03:19:31.273Z,4.50
2018-03-17T03:21:58.766Z,4.50
2018-03-17T03:24:26.246Z,4.40
2018-03-17T03:26:53.714Z,4.40
2018-03-17T03:29:21.204Z,4.40
2018-03-17T03:31:48.676Z,4.30
2018-03-17T03:34:16.480Z,4.40
2018-03-17T03:36:44.809Z,4.20
2018-03-17T03:39:13.061Z,4.10
2018-03-17T03:41:40.540Z,4.10
2018-03-17T03:44:08.030Z,4.00
2018-03-17T03:46:35.509Z,3.90
2018-03-17T03:49:03.030Z,3.90
2018-03-17T03:51:31.290Z,3.80
2018-03-17T03:53:58.861Z,3.70
2018-03-17T03:56:27.181Z,3.60
2018-03-17T03:58:54.686Z,3.60
2018-03-17T04:01:22.165Z,3.60
2018-03-17T04:03:50.681Z,3.60
2018-03-17T04:06:18.177Z,3.60
2018-03-17T04:08:45.653Z,3.60
2018-03-17T04:11:13.893Z,3.40
2018-03-17T04:13:41.386Z,3.40
2018-03-17T04:16:09.625Z,3.30
2018-03-17T04:18:37.102Z,3.30
2018-03-17T04:21:04.602Z,3.30
2018-03-17T04:23:32.077Z,3.20
2018-03-17T04:25:59.550Z,3.10
2018-03-17T04:28:27.057Z,3.10
2018-03-17T04:30:55.300Z,3.20
2018-03-17T04:33:22.777Z,3.10
2018-03-17T04:35:51.037Z,3.30
2018-03-17T04:38:18.613Z,3.30
2018-03-17T04:40:46.859Z,3.20
2018-03-17T04:43:14.361Z,3.20
2018-03-17T04:45:41.836Z,3.10
2018-03-17T04:48:09.313Z,3.00
2018-03-17T04:50:37.683Z,2.90
2018-03-17T04:53:05.913Z,2.80
2018-03-17T04:55:34.860Z,2.80
2018-03-17T04:58:02.355Z,2.80
2018-03-17T05:00:30.603Z,2.70
2018-03-17T05:02:58.077Z,2.70
2018-03-17T05:05:25.608Z,2.70
2018-03-17T05:07:53.082Z,2.80
2018-03-17T05:10:20.561Z,3.00
2018-03-17T05:12:48.824Z,2.90
2018-03-17T05:15:16.293Z,2.90
2018-03-17T05:17:44.577Z,2.90
2018-03-17T05:20:12.837Z,2.90
2018-03-17T05:22:40.321Z,2.80
2018-03-17T05:25:07.813Z,2.80
2018-03-17T05:27:35.322Z,2.70
2018-03-17T05:30:03.566Z,2.60
2018-03-17T05:32:31.054Z,2.60
2018-03-17T05:34:59.317Z,2.50
2018-03-17T05:37:27.558Z,2.40
2018-03-17T05:39:55.101Z,2.40
2018-03-17T05:42:22.594Z,2.40
2018-03-17T05:44:50.066Z,2.30
2018-03-17T05:47:17.537Z,2.40
2018-03-17T05:49:45.798Z,2.30
2018-03-17T05:52:13.303Z,2.30
2018-03-17T05:54:41.077Z,2.30
2018-03-17T05:57:08.801Z,2.20
2018-03-17T05:59:37.049Z,2.20
2018-03-17T06:02:04.527Z,2.20
2018-03-17T06:04:32.785Z,2.10
2018-03-17T06:07:00.261Z,2.10
2018-03-17T06:09:28.533Z,1.80
2018-03-17T06:11:56.797Z,1.80
2018-03-17T06:14:24.279Z,1.80
2018-03-17T06:16:51.762Z,1.90
2018-03-17T06:19:19.262Z,1.80
2018-03-17T06:21:46.842Z,1.80
2018-03-17T06:24:15.125Z,1.80
2018-03-17T06:26:44.050Z,1.90
2018-03-17T06:29:12.345Z,1.70
2018-03-17T06:31:39.825Z,1.70
2018-03-17T06:34:07.327Z,1.70
2018-03-17T06:36:34.876Z,1.60
2018-03-17T06:39:02.354Z,1.60
2018-03-17T06:41:29.872Z,1.60
2018-03-17T06:43:58.397Z,1.70
2018-03-17T06:46:25.908Z,1.70
2018-03-17T06:48:54.178Z,1.80
2018-03-17T06:51:21.655Z,1.80
2018-03-17T06:53:49.144Z,1.80
2018-03-17T06:56:16.691Z,1.80
2018-03-17T06:58:44.937Z,1.60
2018-03-17T07:01:13.197Z,1.60
2018-03-17T07:03:40.697Z,1.60
2018-03-17T07:06:08.181Z,1.60
2018-03-17T07:08:35.662Z,1.60
2018-03-17T07:11:03.970Z,1.70
2018-03-17T07:13:32.486Z,1.60
2018-03-17T07:15:59.966Z,1.60
2018-03-17T07:18:27.465Z,1.50
2018-03-17T07:20:55.718Z,1.50
2018-03-17T07:23:23.198Z,1.50
2018-03-17T07:25:50.755Z,1.40
2018-03-17T07:28:19.005Z,1.50
2018-03-17T07:30:46.485Z,1.40
2018-03-17T07:33:14.750Z,1.40
2018-03-17T07:35:43.006Z,1.30
2018-03-17T07:38:10.490Z,1.30
2018-03-17T07:40:38.787Z,1.30
2018-03-17T07:43:06.270Z,1.30
2018-03-17T07:45:33.750Z,1.30
2018-03-17T07:48:01.320Z,1.30
2018-03-17T07:50:29.582Z,1.40
2018-03-17T07:52:57.077Z,1.40
2018-03-17T07:55:25.658Z,1.60
2018-03-17T07:57:53.898Z,1.50
2018-03-17T08:00:21.519Z,1.50
2018-03-17T08:02:49.017Z,1.40
2018-03-17T08:05:16.510Z,1.50
2018-03-17T08:07:44.794Z,1.70
2018-03-17T08:10:12.298Z,1.70
2018-03-17T08:12:39.769Z,1.70
2018-03-17T08:15:07.246Z,1.70
2018-03-17T08:17:35.700Z,1.90
2018-03-17T08:20:03.178Z,1.90
2018-03-17T08:22:31.460Z,1.80
2018-03-17T08:24:59.326Z,1.90
2018-03-17T08:27:28.594Z,2.00
2018-03-17T08:29:56.097Z,2.00
2018-03-17T08:32:24.617Z,2.00
2018-03-17T08:34:52.103Z,2.00
2018-03-17T08:37:19.585Z,2.10
2018-03-17T08:39:47.850Z,2.10
2018-03-17T08:42:15.446Z,2.10
2018-03-17T08:44:42.926Z,1.90
2018-03-17T08:47:10.442Z,1.80
2018-03-17T08:49:38.689Z,1.80
2018-03-17T08:52:06.276Z,1.80
2018-03-17T08:54:34.546Z,2.00
2018-03-17T08:57:02.877Z,2.00
2018-03-17T08:59:30.632Z,2.00
2018-03-17T09:01:58.142Z,2.20
2018-03-17T09:04:25.617Z,2.00
2018-03-17T09:06:53.114Z,2.00
2018-03-17T09:09:20.606Z,1.90
2018-03-17T09:11:48.874Z,1.90
2018-03-17T09:14:16.354Z,1.90
2018-03-17T09:16:44.619Z,2.30
2018-03-17T09:19:12.349Z,2.20
2018-03-17T09:21:39.835Z,2.20
2018-03-17T09:24:08.106Z,2.10
2018-03-17T09:26:35.681Z,2.10
2018-03-17T09:29:03.922Z,2.10
2018-03-17T09:31:31.418Z,2.10
2018-03-17T09:33:58.982Z,2.30
2018-03-17T09:36:27.291Z,2.20
2018-03-17T09:38:54.793Z,2.20
2018-03-17T09:41:22.474Z,2.20
2018-03-17T09:43:49.970Z,2.20
2018-03-17T09:46:17.474Z,2.10
2018-03-17T09:48:45.049Z,2.30
2018-03-17T09:51:13.291Z,2.30
2018-03-17T09:53:40.800Z,2.30
2018-03-17T09:56:08.274Z,2.40
2018-03-17T09:58:35.785Z,2.30
2018-03-17T10:01:03.286Z,2.30
2018-03-17T10:03:30.771Z,2.40
2018-03-17T10:05:58.250Z,2.50
2018-03-17T10:08:25.937Z,2.50
2018-03-17T10:10:53.418Z,2.60
2018-03-17T10:13:21.194Z,2.60
2018-03-17T10:15:48.729Z,2.70
2018-03-17T10:18:17.139Z,2.60
2018-03-17T10:20:44.632Z,2.60
2018-03-17T10:23:12.125Z,2.70
2018-03-17T10:25:39.607Z,2.90
2018-03-17T10:28:07.082Z,2.80
2018-03-17T10:30:34.611Z,2.70
2018-03-17T10:33:02.145Z,2.70
2018-03-17T10:35:29.743Z,2.60
2018-03-17T10:37:57.346Z,2.50
2018-03-17T10:40:25.788Z,2.50
2018-03-17T10:42:53.545Z,2.50
2018-03-17T10:45:21.042Z,2.20
2018-03-17T10:47:48.615Z,2.30
2018-03-17T10:50:16.053Z,2.30
2018-03-17T10:52:43.630Z,2.30
2018-03-17T10:55:11.882Z,2.40
2018-03-17T10:57:40.598Z,2.30
2018-03-17T11:00:08.348Z,2.30
2018-03-17T11:02:40.804Z,2.40
2018-03-17T11:05:08.535Z,2.40
2018-03-17T11:07:36.599Z,2.40
2018-03-17T11:10:04.077Z,2.30
2018-03-17T11:12:31.573Z,2.40
2018-03-17T11:14:59.818Z,2.40
2018-03-17T11:17:27.288Z,2.30
2018-03-17T11:19:54.786Z,2.20
2018-03-17T11:22:22.273Z,2.30
2018-03-17T11:24:49.934Z,2.20
2018-03-17T11:27:17.441Z,2.50
2018-03-17T11:29:45.819Z,2.50
2018-03-17T11:32:14.099Z,2.40
2018-03-17T11:34:42.361Z,2.50
2018-03-17T11:37:10.610Z,2.40
2018-03-17T11:39:38.085Z,2.40
2018-03-17T11:42:06.350Z,2.50
2018-03-17T11:44:35.521Z,2.50
2018-03-17T11:47:03.014Z,2.50
2018-03-17T11:49:31.285Z,2.70
2018-03-17T11:51:58.781Z,2.70
2018-03-17T11:54:26.258Z,2.70
2018-03-17T11:56:53.757Z,2.80
2018-03-17T11:59:22.002Z,2.60
2018-03-17T12:01:49.481Z,2.60
2018-03-17T12:04:17.753Z,2.80
2018-03-17T12:06:45.234Z,2.80
2018-03-17T12:09:13.482Z,2.70
2018-03-17T12:11:40.986Z,2.70
2018-03-17T12:14:09.229Z,2.70
2018-03-17T12:16:37.476Z,2.70
2018-03-17T12:19:04.970Z,2.70
2018-03-17T12:21:33.214Z,2.80
2018-03-17T12:24:00.699Z,2.80
2018-03-17T12:26:28.975Z,2.70
2018-03-17T12:28:57.226Z,2.60
2018-03-17T12:31:24.706Z,2.60
2018-03-17T12:33:53.196Z,2.50
2018-03-17T12:36:21.479Z,2.60
2018-03-17T12:38:49.726Z,2.70
2018-03-17T12:54:06.159Z,3.40
2018-03-17T12:56:33.638Z,3.30
2018-03-17T12:59:01.109Z,3.00
2018-03-17T13:01:28.606Z,2.70
2018-03-17T13:03:56.844Z,2.60
2018-03-17T13:06:24.329Z,2.60
2018-03-17T13:08:52.598Z,2.60
2018-03-17T13:11:20.070Z,2.60
2018-03-17T13:13:48.385Z,2.50
2018-03-17T13:16:15.878Z,2.50
2018-03-17T13:18:43.361Z,2.60
2018-03-17T13:21:11.630Z,2.80
2018-03-17T13:23:40.261Z,2.90
2018-03-17T13:26:07.804Z,2.90
2018-03-17T13:28:35.480Z,2.80
2018-03-17T13:31:03.246Z,2.70
2018-03-17T13:33:31.725Z,2.70
2018-03-17T13:36:13.521Z,2.60
2018-03-17T13:38:41.296Z,2.60
2018-03-17T13:41:09.266Z,2.60
2018-03-17T13:43:36.922Z,2.70
2018-03-17T13:46:04.571Z,2.40
2018-03-17T13:48:32.441Z,2.50
2018-03-17T13:51:00.451Z,2.50
2018-03-17T13:53:28.273Z,2.60
2018-03-17T13:55:55.766Z,2.40
2018-03-17T13:58:23.262Z,2.20
2018-03-17T14:00:50.848Z,2.10
2018-03-17T14:03:18.325Z,1.90
2018-03-17T14:05:45.819Z,2.10
2018-03-17T14:08:14.062Z,2.00
2018-03-17T14:10:41.538Z,2.00
2018-03-17T14:13:09.065Z,2.00
2018-03-17T14:15:36.573Z,1.90
2018-03-17T14:18:04.846Z,1.80
2018-03-17T14:20:33.122Z,1.80
2018-03-17T14:23:01.366Z,1.70
2018-03-17T14:25:28.853Z,1.70
2018-03-17T14:27:57.109Z,1.80
2018-03-17T14:30:24.589Z,1.80
2018-03-17T14:32:52.861Z,1.80
2018-03-17T14:35:21.125Z,1.90
2018-03-17T14:37:48.753Z,1.90
2018-03-17T14:40:16.226Z,1.80
2018-03-17T14:42:43.721Z,1.90
2018-03-17T14:45:11.965Z,1.90
2018-03-17T14:47:39.487Z,1.90
2018-03-17T14:50:07.187Z,1.90
2018-03-17T14:52:34.751Z,1.90
2018-03-17T14:55:03.043Z,2.00
2018-03-17T14:57:30.603Z,2.00
2018-03-17T14:59:58.098Z,1.80
2018-03-17T15:02:25.618Z,1.60
2018-03-17T15:04:53.897Z,1.70
2018-03-17T15:07:22.209Z,1.60
2018-03-17T15:09:49.734Z,1.60
2018-03-17T15:12:18.118Z,1.70
2018-03-17T15:14:45.601Z,1.70
2018-03-17T15:17:13.269Z,1.50
2018-03-17T15:19:41.243Z,1.50
2018-03-17T15:22:08.784Z,1.50
2018-03-17T15:24:36.537Z,1.60
2018-03-17T15:27:04.041Z,1.60
2018-03-17T15:29:31.665Z,1.40
2018-03-17T15:31:59.165Z,1.30
2018-03-17T15:34:26.665Z,1.30
2018-03-17T15:36:54.457Z,1.20
2018-03-17T15:39:21.998Z,1.20
2018-03-17T15:41:49.458Z,1.20
2018-03-17T15:44:17.597Z,1.20
2018-03-17T15:46:45.409Z,1.20
2018-03-17T15:49:12.963Z,1.30
2018-03-17T15:51:40.449Z,1.30
2018-03-17T15:54:07.957Z,1.20
2018-03-17T15:56:35.457Z,1.20
2018-03-17T15:59:02.948Z,1.30
2018-03-17T16:01:31.661Z,1.20
2018-03-17T16:03:59.549Z,1.20
2018-03-17T16:06:27.065Z,1.20
2018-03-17T16:08:55.685Z,1.30
2018-03-17T16:11:24.109Z,1.20
2018-03-17T16:13:51.732Z,1.20
2018-03-17T16:16:19.217Z,1.30
2018-03-17T16:18:46.731Z,1.20
2018-03-17T16:21:15.262Z,1.30
2018-03-17T16:23:43.052Z,1.20
2018-03-17T16:26:10.678Z,1.10
2018-03-17T16:28:39.669Z,1.10
2018-03-17T16:31:07.145Z,1.10
2018-03-17T16:33:35.414Z,1.10
2018-03-17T16:36:03.752Z,1.10
2018-03-17T16:38:31.233Z,1.10
2018-03-17T16:40:58.730Z,1.10
2018-03-17T16:43:26.978Z,1.00
2018-03-17T16:45:54.721Z,1.00
2018-03-17T16:48:22.704Z,0.90
2018-03-17T16:50:51.163Z,0.80
2018-03-17T16:53:18.654Z,0.80
2018-03-17T16:55:46.155Z,0.90
2018-03-17T16:58:14.156Z,0.90
2018-03-17T17:00:41.802Z,0.90
2018-03-17T17:03:09.328Z,0.90
2018-03-17T17:05:37.129Z,0.80
2018-03-17T17:08:05.716Z,0.80
2018-03-17T17:10:33.841Z,0.80
2018-03-17T17:13:02.090Z,0.70
2018-03-17T17:15:29.826Z,0.70
2018-03-17T17:17:57.476Z,0.70
2018-03-17T17:20:26.494Z,0.70
2018-03-17T17:22:53.974Z,0.70
2018-03-17T17:25:21.549Z,0.60
2018-03-17T17:27:49.789Z,0.60
2018-03-17T17:30:17.275Z,0.60
2018-03-17T17:32:46.883Z,0.60
2018-03-17T17:35:15.199Z,0.60
2018-03-17T17:37:42.726Z,0.50
2018-03-17T17:40:11.302Z,0.60
2018-03-17T17:42:39.545Z,0.50
2018-03-17T17:45:07.022Z,0.50
2018-03-17T17:47:34.521Z,0.60
2018-03-17T17:50:02.002Z,0.60
2018-03-17T17:52:29.546Z,0.50
2018-03-17T17:54:57.345Z,0.50
2018-03-17T17:57:26.236Z,0.40
2018-03-17T17:59:53.781Z,0.50
2018-03-17T18:02:21.338Z,0.40
2018-03-17T18:04:48.821Z,0.50
2018-03-17T18:07:16.397Z,0.40
2018-03-17T18:09:44.658Z,0.30
2018-03-17T18:12:12.481Z,0.30
2018-03-17T18:14:40.269Z,0.30
2018-03-17T18:17:07.790Z,0.30
2018-03-17T18:19:35.269Z,0.30
2018-03-17T18:22:02.746Z,0.30
2018-03-17T18:24:30.242Z,0.20
2018-03-17T18:26:57.736Z,0.30
2018-03-17T18:29:25.256Z,0.40
2018-03-17T18:31:52.809Z,0.40
2018-03-17T18:34:21.050Z,0.30
2018-03-17T18:36:48.530Z,0.30
2018-03-17T18:39:16.813Z,0.20
2018-03-17T18:41:45.061Z,0.10
2018-03-17T18:44:12.548Z,0.10
2018-03-17T18:46:40.825Z,0.10
2018-03-17T18:49:09.069Z,0.10
2018-03-17T18:51:36.553Z,0.10
2018-03-17T18:54:04.813Z,0.10
2018-03-17T18:56:32.365Z,0.00
2018-03-17T18:59:00.809Z,0.10
2018-03-17T19:01:28.306Z,0.10
2018-03-17T19:03:56.551Z,0.10
2018-03-17T19:06:24.057Z,0.10
2018-03-17T19:08:52.326Z,0.10
2018-03-17T19:11:19.799Z,0.00
2018-03-17T19:13:47.288Z,0.00
2018-03-17T19:16:14.789Z,0.00
2018-03-17T19:18:42.277Z,-0.10
2018-03-17T19:21:09.822Z,0.00
2018-03-17T19:23:38.186Z,-0.10
2018-03-17T19:26:06.449Z,-0.20
2018-03-17T19:28:33.933Z,-0.20
2018-03-17T19:31:02.207Z,-0.30
2018-03-17T19:33:30.460Z,-0.30
2018-03-17T19:35:57.946Z,-0.30
2018-03-17T19:38:26.250Z,-0.20
2018-03-17T19:40:53.735Z,-0.30
2018-03-17T19:43:21.238Z,-0.30
2018-03-17T19:45:49.505Z,-0.30
2018-03-17T19:48:17.772Z,-0.30
2018-03-17T19:50:45.253Z,-0.30
2018-03-17T19:53:12.754Z,-0.30
2018-03-17T19:55:40.230Z,-0.30
2018-03-17T19:58:07.751Z,-0.40
2018-03-17T20:00:35.262Z,-0.40
2018-03-17T20:03:02.737Z,-0.40
2018-03-17T20:05:30.981Z,-0.40
2018-03-17T20:07:58.477Z,-0.40
2018-03-17T20:10:25.958Z,-0.50
2018-03-17T20:12:53.438Z,-0.40
2018-03-17T20:15:20.938Z,-0.40
2018-03-17T20:17:49.457Z,-0.40
2018-03-17T20:20:16.937Z,-0.40
2018-03-17T20:22:44.568Z,-0.40
2018-03-17T20:25:12.292Z,-0.40
2018-03-17T20:27:40.556Z,-0.50
2018-03-17T20:30:08.085Z,-0.50
2018-03-17T20:32:35.561Z,-0.60
2018-03-17T20:35:03.293Z,-0.60
2018-03-17T20:37:30.793Z,-0.60
2018-03-17T20:39:58.510Z,-0.60
2018-03-17T20:42:25.997Z,-0.60
2018-03-17T20:44:53.494Z,-0.60
2018-03-17T20:47:21.734Z,-0.60
2018-03-17T20:49:49.213Z,-0.60
2018-03-17T20:52:17.494Z,-0.50
2018-03-17T20:54:45.741Z,-0.50
2018-03-17T20:57:13.229Z,-0.50
2018-03-17T20:59:41.509Z,-0.60
2018-03-17T21:02:09.058Z,-0.60
2018-03-17T21:04:37.305Z,-0.60
2018-03-17T21:07:04.890Z,-0.70
2018-03-17T21:09:33.166Z,-0.60
2018-03-17T21:12:01.409Z,-0.60
2018-03-17T21:14:28.914Z,-0.60
2018-03-17T21:16:56.390Z,-0.60
2018-03-17T21:19:23.869Z,-0.60
2018-03-17T21:21:51.361Z,-0.60
2018-03-17T21:24:18.860Z,-0.70
2018-03-17T21:26:46.334Z,-0.70
2018-03-17T21:29:13.834Z,-0.70
2018-03-17T21:31:41.314Z,-0.80
2018-03-17T21:34:09.557Z,-1.00
2018-03-17T21:36:37.058Z,-0.90
2018-03-17T21:39:04.574Z,-1.00
2018-03-17T21:41:32.058Z,-1.20
2018-03-17T21:43:59.609Z,-1.20
2018-03-17T21:46:27.881Z,-1.40
2018-03-17T21:48:56.409Z,-1.40
2018-03-17T21:51:23.904Z,-1.40
2018-03-17T21:53:51.381Z,-1.50
2018-03-17T21:56:19.697Z,-1.40
2018-03-17T21:58:47.209Z,-1.40
2018-03-17T22:01:15.459Z,-1.30
2018-03-17T22:03:43.198Z,-1.40
2018-03-17T22:06:10.705Z,-1.40
2018-03-17T22:08:38.988Z,-1.40
2018-03-17T22:11:07.235Z,-1.40
2018-03-17T22:13:34.783Z,-1.40
2018-03-17T22:16:02.221Z,-1.30
2018-03-17T22:18:29.694Z,-1.40
2018-03-17T22:20:57.189Z,-1.40
2018-03-17T22:23:25.433Z,-1.40
2018-03-17T22:25:52.905Z,-1.40
2018-03-17T22:28:20.730Z,-1.40
2018-03-17T22:30:48.210Z,-1.40
2018-03-17T22:33:15.681Z,-1.50
2018-03-17T22:35:43.193Z,-1.50
2018-03-17T22:38:10.677Z,-1.40
2018-03-17T22:40:38.153Z,-1.40
2018-03-17T22:43:05.983Z,-1.40
2018-03-17T22:45:33.465Z,-1.40
2018-03-17T22:48:00.942Z,-1.50
2018-03-17T22:50:28.450Z,-1.50
2018-03-17T22:52:55.932Z,-1.50
2018-03-17T22:55:23.457Z,-1.50
2018-03-17T22:57:50.949Z,-1.60
2018-03-17T23:00:18.428Z,-1.60
2018-03-17T23:02:45.917Z,-1.70
2018-03-17T23:05:13.458Z,-1.60
2018-03-17T23:07:41.713Z,-1.60
2018-03-17T23:10:09.193Z,-1.60
2018-03-17T23:12:37.452Z,-1.70
2018-03-17T23:15:04.949Z,-1.70
2018-03-17T23:17:32.449Z,-1.70
2018-03-17T23:19:59.941Z,-1.80
2018-03-17T23:22:28.185Z,-1.70
2018-03-17T23:24:55.665Z,-1.70
2018-03-17T23:27:23.929Z,-1.70
2018-03-17T23:29:51.404Z,-1.70
2018-03-17T23:32:19.645Z,-1.80
2018-03-17T23:34:47.138Z,-1.80
2018-03-17T23:37:15.660Z,-1.80
2018-03-17T23:39:43.145Z,-1.70
2018-03-17T23:42:10.656Z,-1.70
2018-03-17T23:44:38.133Z,-1.80
2018-03-17T23:47:05.612Z,-1.70
2018-03-17T23:49:33.109Z,-1.70
2018-03-17T23:52:01.358Z,-1.60
2018-03-17T23:54:29.603Z,-1.60
2018-03-17T23:56:57.101Z,-1.60
2018-03-17T23:59:24.589Z,-1.60
